sensor_id;sensor_type;location;lat;lon;timestamp;P1;durP1;ratioP1;P2;durP2;ratioP2
10248;SDS011;5169;50.560;9.714;2022-08-03T00:01:58;2.53;;;2.33;;
10248;SDS011;5169;50.560;9.714;2022-08-03T00:04:27;3.10;;;2.80;;
10248;SDS011;5169;50.560;9.714;2022-08-03T00:06:53;4.27;;;2.77;;
10248;SDS011;5169;50.560;9.714;2022-08-03T00:09:19;4.00;;;2.40;;
10248;SDS011;5169;50.560;9.714;2022-08-03T00:11:47;2.63;;;2.43;;
10248;SDS011;5169;50.560;9.714;2022-08-03T00:14:15;3.77;;;2.60;;
10248;SDS011;5169;50.560;9.714;2022-08-03T00:16:40;2.80;;;2.50;;
10248;SDS011;5169;50.560;9.714;2022-08-03T00:19:08;3.90;;;2.73;;
10248;SDS011;5169;50.560;9.714;2022-08-03T00:21:36;3.77;;;2.53;;
10248;SDS011;5169;50.560;9.714;2022-08-03T00:24:02;3.10;;;2.80;;
10248;SDS011;5169;50.560;9.714;2022-08-03T00:26:30;2.80;;;2.20;;
10248;SDS011;5169;50.560;9.714;2022-08-03T00:28:58;2.97;;;2.40;;
10248;SDS011;5169;50.560;9.714;2022-08-03T00:31:26;3.53;;;2.20;;
10248;SDS011;5169;50.560;9.714;2022-08-03T00:33:52;3.43;;;2.40;;
10248;SDS011;5169;50.560;9.714;2022-08-03T00:36:20;2.73;;;2.53;;
10248;SDS011;5169;50.560;9.714;2022-08-03T00:38:46;3.60;;;2.50;;
10248;SDS011;5169;50.560;9.714;2022-08-03T00:41:11;2.90;;;2.70;;
10248;SDS011;5169;50.560;9.714;2022-08-03T00:43:37;3.37;;;2.40;;
10248;SDS011;5169;50.560;9.714;2022-08-03T00:46:03;5.97;;;2.77;;
10248;SDS011;5169;50.560;9.714;2022-08-03T00:48:28;2.57;;;2.37;;
10248;SDS011;5169;50.560;9.714;2022-08-03T00:50:54;4.27;;;2.70;;
10248;SDS011;5169;50.560;9.714;2022-08-03T00:53:20;3.57;;;2.73;;
10248;SDS011;5169;50.560;9.714;2022-08-03T00:55:48;2.70;;;2.50;;
10248;SDS011;5169;50.560;9.714;2022-08-03T00:58:14;3.73;;;2.60;;
10248;SDS011;5169;50.560;9.714;2022-08-03T01:00:42;2.57;;;2.37;;
10248;SDS011;5169;50.560;9.714;2022-08-03T01:03:08;2.90;;;2.57;;
10248;SDS011;5169;50.560;9.714;2022-08-03T01:05:39;2.47;;;2.27;;
10248;SDS011;5169;50.560;9.714;2022-08-03T01:08:22;2.67;;;2.47;;
10248;SDS011;5169;50.560;9.714;2022-08-03T01:11:16;5.60;;;2.80;;
10248;SDS011;5169;50.560;9.714;2022-08-03T01:16:40;2.37;;;2.17;;
10248;SDS011;5169;50.560;9.714;2022-08-03T01:24:45;3.30;;;2.73;;
10248;SDS011;5169;50.560;9.714;2022-08-03T01:27:17;4.37;;;2.70;;
10248;SDS011;5169;50.560;9.714;2022-08-03T01:29:51;5.13;;;3.23;;
10248;SDS011;5169;50.560;9.714;2022-08-03T01:33:11;3.37;;;2.80;;
10248;SDS011;5169;50.560;9.714;2022-08-03T01:35:13;3.53;;;3.00;;
10248;SDS011;5169;50.560;9.714;2022-08-03T01:37:52;4.07;;;3.17;;
10248;SDS011;5169;50.560;9.714;2022-08-03T01:40:23;3.33;;;2.90;;
10248;SDS011;5169;50.560;9.714;2022-08-03T01:42:50;4.67;;;3.40;;
10248;SDS011;5169;50.560;9.714;2022-08-03T01:45:20;5.53;;;3.10;;
10248;SDS011;5169;50.560;9.714;2022-08-03T01:47:50;3.87;;;3.33;;
10248;SDS011;5169;50.560;9.714;2022-08-03T01:50:21;5.50;;;3.47;;
10248;SDS011;5169;50.560;9.714;2022-08-03T01:52:51;3.83;;;3.40;;
10248;SDS011;5169;50.560;9.714;2022-08-03T01:55:20;6.33;;;4.33;;
10248;SDS011;5169;50.560;9.714;2022-08-03T01:57:53;10.40;;;3.90;;
10248;SDS011;5169;50.560;9.714;2022-08-03T02:00:20;4.33;;;3.70;;
10248;SDS011;5169;50.560;9.714;2022-08-03T02:02:50;3.93;;;3.53;;
10248;SDS011;5169;50.560;9.714;2022-08-03T02:05:18;5.17;;;4.27;;
10248;SDS011;5169;50.560;9.714;2022-08-03T02:07:45;4.53;;;3.70;;
10248;SDS011;5169;50.560;9.714;2022-08-03T02:10:13;4.20;;;3.70;;
10248;SDS011;5169;50.560;9.714;2022-08-03T02:12:43;3.90;;;3.50;;
10248;SDS011;5169;50.560;9.714;2022-08-03T02:15:10;4.10;;;3.70;;
10248;SDS011;5169;50.560;9.714;2022-08-03T02:17:36;3.90;;;3.47;;
10248;SDS011;5169;50.560;9.714;2022-08-03T02:20:03;4.90;;;3.30;;
10248;SDS011;5169;50.560;9.714;2022-08-03T02:22:30;5.87;;;4.00;;
10248;SDS011;5169;50.560;9.714;2022-08-03T02:25:00;5.73;;;3.63;;
10248;SDS011;5169;50.560;9.714;2022-08-03T02:27:26;4.20;;;3.57;;
10248;SDS011;5169;50.560;9.714;2022-08-03T02:29:55;4.03;;;3.73;;
10248;SDS011;5169;50.560;9.714;2022-08-03T02:32:29;5.10;;;4.63;;
10248;SDS011;5169;50.560;9.714;2022-08-03T02:34:59;5.30;;;4.63;;
10248;SDS011;5169;50.560;9.714;2022-08-03T02:37:31;4.93;;;4.53;;
10248;SDS011;5169;50.560;9.714;2022-08-03T02:40:06;5.63;;;5.13;;
10248;SDS011;5169;50.560;9.714;2022-08-03T02:42:36;5.20;;;4.70;;
10248;SDS011;5169;50.560;9.714;2022-08-03T02:45:08;4.87;;;4.40;;
10248;SDS011;5169;50.560;9.714;2022-08-03T02:47:39;4.60;;;4.17;;
10248;SDS011;5169;50.560;9.714;2022-08-03T02:50:08;4.50;;;4.10;;
10248;SDS011;5169;50.560;9.714;2022-08-03T02:52:35;4.50;;;4.10;;
10248;SDS011;5169;50.560;9.714;2022-08-03T02:55:01;4.00;;;3.70;;
10248;SDS011;5169;50.560;9.714;2022-08-03T02:57:29;3.73;;;3.30;;
10248;SDS011;5169;50.560;9.714;2022-08-03T02:59:57;3.90;;;3.60;;
10248;SDS011;5169;50.560;9.714;2022-08-03T03:02:27;5.63;;;4.60;;
10248;SDS011;5169;50.560;9.714;2022-08-03T03:04:55;3.63;;;3.33;;
10248;SDS011;5169;50.560;9.714;2022-08-03T03:07:24;5.07;;;3.60;;
10248;SDS011;5169;50.560;9.714;2022-08-03T03:09:51;4.87;;;3.90;;
10248;SDS011;5169;50.560;9.714;2022-08-03T03:12:18;5.83;;;4.07;;
10248;SDS011;5169;50.560;9.714;2022-08-03T03:14:45;4.13;;;3.63;;
10248;SDS011;5169;50.560;9.714;2022-08-03T03:17:11;4.23;;;3.73;;
10248;SDS011;5169;50.560;9.714;2022-08-03T03:19:41;5.50;;;3.90;;
10248;SDS011;5169;50.560;9.714;2022-08-03T03:22:09;5.77;;;3.63;;
10248;SDS011;5169;50.560;9.714;2022-08-03T03:24:38;5.53;;;4.27;;
10248;SDS011;5169;50.560;9.714;2022-08-03T03:27:05;4.17;;;3.73;;
10248;SDS011;5169;50.560;9.714;2022-08-03T03:29:34;5.17;;;3.90;;
10248;SDS011;5169;50.560;9.714;2022-08-03T03:32:00;4.23;;;3.80;;
10248;SDS011;5169;50.560;9.714;2022-08-03T03:34:28;4.80;;;4.30;;
10248;SDS011;5169;50.560;9.714;2022-08-03T03:36:57;4.03;;;3.60;;
10248;SDS011;5169;50.560;9.714;2022-08-03T03:39:23;4.30;;;3.90;;
10248;SDS011;5169;50.560;9.714;2022-08-03T03:41:49;4.77;;;4.10;;
10248;SDS011;5169;50.560;9.714;2022-08-03T03:44:15;5.10;;;4.07;;
10248;SDS011;5169;50.560;9.714;2022-08-03T03:46:44;4.57;;;4.17;;
10248;SDS011;5169;50.560;9.714;2022-08-03T03:49:10;4.83;;;3.67;;
10248;SDS011;5169;50.560;9.714;2022-08-03T03:51:36;4.23;;;3.83;;
10248;SDS011;5169;50.560;9.714;2022-08-03T03:54:04;4.77;;;3.93;;
10248;SDS011;5169;50.560;9.714;2022-08-03T03:56:31;4.27;;;3.80;;
10248;SDS011;5169;50.560;9.714;2022-08-03T03:58:57;4.67;;;4.20;;
10248;SDS011;5169;50.560;9.714;2022-08-03T04:01:23;4.40;;;4.00;;
10248;SDS011;5169;50.560;9.714;2022-08-03T04:03:49;4.67;;;3.90;;
10248;SDS011;5169;50.560;9.714;2022-08-03T04:06:19;4.43;;;3.80;;
10248;SDS011;5169;50.560;9.714;2022-08-03T04:09:04;4.17;;;3.70;;
10248;SDS011;5169;50.560;9.714;2022-08-03T04:11:53;4.30;;;3.90;;
10248;SDS011;5169;50.560;9.714;2022-08-03T04:14:28;6.50;;;4.50;;
10248;SDS011;5169;50.560;9.714;2022-08-03T04:16:58;5.03;;;4.43;;
10248;SDS011;5169;50.560;9.714;2022-08-03T04:19:37;6.93;;;4.40;;
10248;SDS011;5169;50.560;9.714;2022-08-03T04:22:11;6.67;;;4.47;;
10248;SDS011;5169;50.560;9.714;2022-08-03T04:24:47;5.13;;;4.37;;
10248;SDS011;5169;50.560;9.714;2022-08-03T04:27:17;5.23;;;4.73;;
10248;SDS011;5169;50.560;9.714;2022-08-03T04:29:52;4.90;;;4.47;;
10248;SDS011;5169;50.560;9.714;2022-08-03T04:32:20;5.63;;;4.77;;
10248;SDS011;5169;50.560;9.714;2022-08-03T04:34:50;6.17;;;5.10;;
10248;SDS011;5169;50.560;9.714;2022-08-03T04:40:04;5.43;;;4.93;;
10248;SDS011;5169;50.560;9.714;2022-08-03T04:42:36;6.10;;;5.00;;
10248;SDS011;5169;50.560;9.714;2022-08-03T04:45:03;5.30;;;4.80;;
10248;SDS011;5169;50.560;9.714;2022-08-03T04:47:33;5.30;;;4.80;;
10248;SDS011;5169;50.560;9.714;2022-08-03T04:50:02;4.60;;;4.27;;
10248;SDS011;5169;50.560;9.714;2022-08-03T04:52:31;7.30;;;5.37;;
10248;SDS011;5169;50.560;9.714;2022-08-03T04:55:01;5.47;;;4.97;;
10248;SDS011;5169;50.560;9.714;2022-08-03T04:57:29;6.20;;;5.10;;
10248;SDS011;5169;50.560;9.714;2022-08-03T04:59:55;6.13;;;5.00;;
10248;SDS011;5169;50.560;9.714;2022-08-03T05:02:21;6.73;;;4.97;;
10248;SDS011;5169;50.560;9.714;2022-08-03T05:04:47;5.40;;;4.90;;
10248;SDS011;5169;50.560;9.714;2022-08-03T05:07:14;5.53;;;5.00;;
10248;SDS011;5169;50.560;9.714;2022-08-03T05:09:41;5.07;;;4.67;;
10248;SDS011;5169;50.560;9.714;2022-08-03T05:12:10;6.37;;;4.90;;
10248;SDS011;5169;50.560;9.714;2022-08-03T05:14:38;7.03;;;5.60;;
10248;SDS011;5169;50.560;9.714;2022-08-03T05:17:06;7.30;;;5.47;;
10248;SDS011;5169;50.560;9.714;2022-08-03T05:19:36;5.30;;;4.80;;
10248;SDS011;5169;50.560;9.714;2022-08-03T05:22:02;5.70;;;5.07;;
10248;SDS011;5169;50.560;9.714;2022-08-03T05:24:29;6.03;;;5.20;;
10248;SDS011;5169;50.560;9.714;2022-08-03T05:26:55;5.30;;;4.87;;
10248;SDS011;5169;50.560;9.714;2022-08-03T05:29:21;8.03;;;4.77;;
10248;SDS011;5169;50.560;9.714;2022-08-03T05:31:49;5.00;;;4.50;;
10248;SDS011;5169;50.560;9.714;2022-08-03T05:34:15;4.70;;;4.30;;
10248;SDS011;5169;50.560;9.714;2022-08-03T05:36:40;5.57;;;4.13;;
10248;SDS011;5169;50.560;9.714;2022-08-03T05:39:08;7.13;;;3.80;;
10248;SDS011;5169;50.560;9.714;2022-08-03T05:41:36;4.20;;;3.80;;
10248;SDS011;5169;50.560;9.714;2022-08-03T05:44:02;3.75;;;3.45;;
10248;SDS011;5169;50.560;9.714;2022-08-03T05:46:28;4.03;;;3.63;;
10248;SDS011;5169;50.560;9.714;2022-08-03T05:48:53;5.13;;;3.60;;
10248;SDS011;5169;50.560;9.714;2022-08-03T05:51:19;4.88;;;3.53;;
10248;SDS011;5169;50.560;9.714;2022-08-03T05:53:45;5.90;;;3.38;;
10248;SDS011;5169;50.560;9.714;2022-08-03T05:56:11;4.97;;;3.70;;
10248;SDS011;5169;50.560;9.714;2022-08-03T05:58:36;5.18;;;4.07;;
10248;SDS011;5169;50.560;9.714;2022-08-03T06:01:02;5.47;;;4.00;;
10248;SDS011;5169;50.560;9.714;2022-08-03T06:03:28;4.75;;;3.85;;
10248;SDS011;5169;50.560;9.714;2022-08-03T06:05:56;5.78;;;4.40;;
10248;SDS011;5169;50.560;9.714;2022-08-03T06:08:22;4.60;;;3.63;;
10248;SDS011;5169;50.560;9.714;2022-08-03T06:10:50;4.20;;;3.90;;
10248;SDS011;5169;50.560;9.714;2022-08-03T06:13:16;5.40;;;4.70;;
10248;SDS011;5169;50.560;9.714;2022-08-03T06:15:42;5.97;;;4.50;;
10248;SDS011;5169;50.560;9.714;2022-08-03T06:18:10;4.67;;;4.27;;
10248;SDS011;5169;50.560;9.714;2022-08-03T06:20:35;6.17;;;4.07;;
10248;SDS011;5169;50.560;9.714;2022-08-03T06:23:01;6.93;;;4.33;;
10248;SDS011;5169;50.560;9.714;2022-08-03T06:25:27;6.47;;;5.30;;
10248;SDS011;5169;50.560;9.714;2022-08-03T06:27:53;6.43;;;4.47;;
10248;SDS011;5169;50.560;9.714;2022-08-03T06:30:18;6.20;;;4.37;;
10248;SDS011;5169;50.560;9.714;2022-08-03T06:32:44;6.60;;;5.03;;
10248;SDS011;5169;50.560;9.714;2022-08-03T06:35:12;5.73;;;4.60;;
10248;SDS011;5169;50.560;9.714;2022-08-03T06:37:41;6.63;;;4.20;;
10248;SDS011;5169;50.560;9.714;2022-08-03T06:40:09;6.43;;;4.70;;
10248;SDS011;5169;50.560;9.714;2022-08-03T06:42:39;4.97;;;4.43;;
10248;SDS011;5169;50.560;9.714;2022-08-03T06:45:06;4.80;;;4.40;;
10248;SDS011;5169;50.560;9.714;2022-08-03T06:47:33;8.40;;;4.53;;
10248;SDS011;5169;50.560;9.714;2022-08-03T06:50:05;6.43;;;4.60;;
10248;SDS011;5169;50.560;9.714;2022-08-03T06:52:33;6.33;;;4.30;;
10248;SDS011;5169;50.560;9.714;2022-08-03T06:55:01;8.23;;;4.93;;
10248;SDS011;5169;50.560;9.714;2022-08-03T06:57:27;4.27;;;3.87;;
10248;SDS011;5169;50.560;9.714;2022-08-03T06:59:53;8.23;;;4.43;;
10248;SDS011;5169;50.560;9.714;2022-08-03T07:02:20;6.27;;;4.33;;
10248;SDS011;5169;50.560;9.714;2022-08-03T07:04:46;7.10;;;3.97;;
10248;SDS011;5169;50.560;9.714;2022-08-03T07:07:13;7.10;;;4.27;;
10248;SDS011;5169;50.560;9.714;2022-08-03T07:09:38;4.83;;;3.67;;
10248;SDS011;5169;50.560;9.714;2022-08-03T07:12:06;7.87;;;3.90;;
10248;SDS011;5169;50.560;9.714;2022-08-03T07:14:35;5.27;;;3.87;;
10248;SDS011;5169;50.560;9.714;2022-08-03T07:17:00;5.87;;;3.60;;
10248;SDS011;5169;50.560;9.714;2022-08-03T07:19:28;4.33;;;3.07;;
10248;SDS011;5169;50.560;9.714;2022-08-03T07:21:56;4.93;;;3.00;;
10248;SDS011;5169;50.560;9.714;2022-08-03T07:24:24;5.07;;;2.93;;
10248;SDS011;5169;50.560;9.714;2022-08-03T07:26:49;5.97;;;3.30;;
10248;SDS011;5169;50.560;9.714;2022-08-03T07:29:15;4.10;;;2.90;;
10248;SDS011;5169;50.560;9.714;2022-08-03T07:31:41;3.57;;;2.60;;
10248;SDS011;5169;50.560;9.714;2022-08-03T07:34:09;3.23;;;2.83;;
10248;SDS011;5169;50.560;9.714;2022-08-03T07:36:35;3.63;;;2.30;;
10248;SDS011;5169;50.560;9.714;2022-08-03T07:39:01;4.73;;;2.83;;
10248;SDS011;5169;50.560;9.714;2022-08-03T07:41:27;3.20;;;2.60;;
10248;SDS011;5169;50.560;9.714;2022-08-03T07:43:52;6.13;;;2.63;;
10248;SDS011;5169;50.560;9.714;2022-08-03T07:46:18;3.07;;;2.57;;
10248;SDS011;5169;50.560;9.714;2022-08-03T07:48:44;4.00;;;2.30;;
10248;SDS011;5169;50.560;9.714;2022-08-03T07:51:09;4.07;;;2.40;;
10248;SDS011;5169;50.560;9.714;2022-08-03T07:53:40;4.60;;;2.10;;
10248;SDS011;5169;50.560;9.714;2022-08-03T07:56:06;6.17;;;2.43;;
10248;SDS011;5169;50.560;9.714;2022-08-03T07:58:31;2.83;;;2.37;;
10248;SDS011;5169;50.560;9.714;2022-08-03T08:00:59;4.70;;;2.20;;
10248;SDS011;5169;50.560;9.714;2022-08-03T08:03:27;2.00;;;1.80;;
10248;SDS011;5169;50.560;9.714;2022-08-03T08:05:53;2.00;;;1.77;;
10248;SDS011;5169;50.560;9.714;2022-08-03T08:08:21;3.37;;;2.10;;
10248;SDS011;5169;50.560;9.714;2022-08-03T08:10:46;3.85;;;1.73;;
10248;SDS011;5169;50.560;9.714;2022-08-03T08:13:12;5.70;;;2.28;;
10248;SDS011;5169;50.560;9.714;2022-08-03T08:15:43;2.65;;;1.90;;
10248;SDS011;5169;50.560;9.714;2022-08-03T08:18:13;2.03;;;1.80;;
10248;SDS011;5169;50.560;9.714;2022-08-03T08:20:39;2.15;;;1.85;;
10248;SDS011;5169;50.560;9.714;2022-08-03T08:23:06;2.67;;;1.80;;
10248;SDS011;5169;50.560;9.714;2022-08-03T08:25:32;3.28;;;1.50;;
10248;SDS011;5169;50.560;9.714;2022-08-03T08:27:58;2.45;;;1.90;;
10248;SDS011;5169;50.560;9.714;2022-08-03T08:30:30;3.00;;;1.70;;
10248;SDS011;5169;50.560;9.714;2022-08-03T08:32:57;2.67;;;1.60;;
10248;SDS011;5169;50.560;9.714;2022-08-03T08:35:25;1.80;;;1.70;;
10248;SDS011;5169;50.560;9.714;2022-08-03T08:37:51;3.10;;;1.60;;
10248;SDS011;5169;50.560;9.714;2022-08-03T08:40:19;2.55;;;1.60;;
10248;SDS011;5169;50.560;9.714;2022-08-03T08:42:48;3.58;;;1.75;;
10248;SDS011;5169;50.560;9.714;2022-08-03T08:45:17;2.58;;;1.58;;
10248;SDS011;5169;50.560;9.714;2022-08-03T08:47:44;2.58;;;1.60;;
10248;SDS011;5169;50.560;9.714;2022-08-03T08:50:12;3.75;;;1.85;;
10248;SDS011;5169;50.560;9.714;2022-08-03T08:52:40;4.43;;;2.03;;
10248;SDS011;5169;50.560;9.714;2022-08-03T08:55:13;3.15;;;1.70;;
10248;SDS011;5169;50.560;9.714;2022-08-03T08:57:46;5.68;;;1.75;;
10248;SDS011;5169;50.560;9.714;2022-08-03T09:00:13;3.78;;;1.73;;
10248;SDS011;5169;50.560;9.714;2022-08-03T09:02:40;2.30;;;1.70;;
10248;SDS011;5169;50.560;9.714;2022-08-03T09:05:11;3.22;;;1.70;;
10248;SDS011;5169;50.560;9.714;2022-08-03T09:07:44;3.08;;;1.80;;
10248;SDS011;5169;50.560;9.714;2022-08-03T09:10:11;2.58;;;1.60;;
10248;SDS011;5169;50.560;9.714;2022-08-03T09:12:43;2.28;;;1.88;;
10248;SDS011;5169;50.560;9.714;2022-08-03T09:17:45;3.38;;;1.77;;
10248;SDS011;5169;50.560;9.714;2022-08-03T09:20:12;1.95;;;1.80;;
10248;SDS011;5169;50.560;9.714;2022-08-03T09:22:55;2.60;;;1.75;;
10248;SDS011;5169;50.560;9.714;2022-08-03T09:25:36;4.57;;;1.67;;
10248;SDS011;5169;50.560;9.714;2022-08-03T09:28:11;2.35;;;1.90;;
10248;SDS011;5169;50.560;9.714;2022-08-03T09:30:44;2.25;;;1.80;;
10248;SDS011;5169;50.560;9.714;2022-08-03T09:33:24;3.75;;;1.70;;
10248;SDS011;5169;50.560;9.714;2022-08-03T09:35:52;4.60;;;2.22;;
10248;SDS011;5169;50.560;9.714;2022-08-03T09:38:23;2.22;;;1.75;;
10248;SDS011;5169;50.560;9.714;2022-08-03T09:40:53;3.50;;;1.88;;
10248;SDS011;5169;50.560;9.714;2022-08-03T09:43:19;2.97;;;1.70;;
10248;SDS011;5169;50.560;9.714;2022-08-03T09:45:49;2.72;;;1.50;;
10248;SDS011;5169;50.560;9.714;2022-08-03T09:48:26;2.40;;;1.60;;
10248;SDS011;5169;50.560;9.714;2022-08-03T09:50:59;2.00;;;1.55;;
10248;SDS011;5169;50.560;9.714;2022-08-03T09:53:25;2.35;;;1.90;;
10248;SDS011;5169;50.560;9.714;2022-08-03T09:58:24;3.33;;;1.90;;
10248;SDS011;5169;50.560;9.714;2022-08-03T10:03:25;2.67;;;1.58;;
10248;SDS011;5169;50.560;9.714;2022-08-03T10:05:54;3.05;;;1.80;;
10248;SDS011;5169;50.560;9.714;2022-08-03T10:08:21;2.15;;;1.85;;
10248;SDS011;5169;50.560;9.714;2022-08-03T10:10:49;4.40;;;1.90;;
10248;SDS011;5169;50.560;9.714;2022-08-03T10:13:18;3.70;;;1.73;;
10248;SDS011;5169;50.560;9.714;2022-08-03T10:15:46;4.43;;;1.80;;
10248;SDS011;5169;50.560;9.714;2022-08-03T10:18:14;3.13;;;1.63;;
10248;SDS011;5169;50.560;9.714;2022-08-03T10:20:43;1.77;;;1.67;;
10248;SDS011;5169;50.560;9.714;2022-08-03T10:23:13;1.77;;;1.65;;
10248;SDS011;5169;50.560;9.714;2022-08-03T10:25:46;2.47;;;1.50;;
10248;SDS011;5169;50.560;9.714;2022-08-03T10:28:17;1.73;;;1.63;;
10248;SDS011;5169;50.560;9.714;2022-08-03T10:30:46;2.17;;;1.40;;
10248;SDS011;5169;50.560;9.714;2022-08-03T10:33:16;2.65;;;1.80;;
10248;SDS011;5169;50.560;9.714;2022-08-03T10:35:49;3.78;;;1.70;;
10248;SDS011;5169;50.560;9.714;2022-08-03T10:38:18;2.67;;;1.23;;
10248;SDS011;5169;50.560;9.714;2022-08-03T10:40:48;3.72;;;1.70;;
10248;SDS011;5169;50.560;9.714;2022-08-03T10:43:39;1.95;;;1.30;;
10248;SDS011;5169;50.560;9.714;2022-08-03T10:46:13;2.00;;;1.60;;
10248;SDS011;5169;50.560;9.714;2022-08-03T10:48:41;1.73;;;1.60;;
10248;SDS011;5169;50.560;9.714;2022-08-03T10:51:08;1.77;;;1.55;;
10248;SDS011;5169;50.560;9.714;2022-08-03T10:53:38;1.63;;;1.50;;
10248;SDS011;5169;50.560;9.714;2022-08-03T10:56:06;3.42;;;1.48;;
10248;SDS011;5169;50.560;9.714;2022-08-03T10:59:16;3.30;;;1.40;;
10248;SDS011;5169;50.560;9.714;2022-08-03T11:01:52;1.40;;;1.30;;
10248;SDS011;5169;50.560;9.714;2022-08-03T11:04:20;2.60;;;1.48;;
10248;SDS011;5169;50.560;9.714;2022-08-03T11:09:46;1.58;;;1.20;;
10248;SDS011;5169;50.560;9.714;2022-08-03T11:12:23;2.17;;;1.40;;
10248;SDS011;5169;50.560;9.714;2022-08-03T11:15:00;1.95;;;1.40;;
10248;SDS011;5169;50.560;9.714;2022-08-03T11:17:33;2.67;;;1.20;;
10248;SDS011;5169;50.560;9.714;2022-08-03T11:19:59;1.30;;;1.10;;
10248;SDS011;5169;50.560;9.714;2022-08-03T11:22:25;1.67;;;1.20;;
10248;SDS011;5169;50.560;9.714;2022-08-03T11:25:18;1.98;;;1.20;;
10248;SDS011;5169;50.560;9.714;2022-08-03T11:27:44;2.17;;;1.20;;
10248;SDS011;5169;50.560;9.714;2022-08-03T11:30:14;3.20;;;1.13;;
10248;SDS011;5169;50.560;9.714;2022-08-03T11:32:56;1.77;;;1.60;;
10248;SDS011;5169;50.560;9.714;2022-08-03T11:35:30;2.47;;;1.33;;
10248;SDS011;5169;50.560;9.714;2022-08-03T11:38:04;1.63;;;1.25;;
10248;SDS011;5169;50.560;9.714;2022-08-03T11:43:28;2.55;;;1.23;;
10248;SDS011;5169;50.560;9.714;2022-08-03T11:45:58;1.52;;;1.23;;
10248;SDS011;5169;50.560;9.714;2022-08-03T11:51:00;8.38;;;1.38;;
10248;SDS011;5169;50.560;9.714;2022-08-03T11:53:26;2.20;;;1.30;;
10248;SDS011;5169;50.560;9.714;2022-08-03T11:55:52;1.20;;;1.10;;
10248;SDS011;5169;50.560;9.714;2022-08-03T11:58:25;3.90;;;1.27;;
10248;SDS011;5169;50.560;9.714;2022-08-03T12:01:04;3.00;;;1.20;;
10248;SDS011;5169;50.560;9.714;2022-08-03T12:03:35;1.50;;;1.08;;
10248;SDS011;5169;50.560;9.714;2022-08-03T12:06:05;1.63;;;1.20;;
10248;SDS011;5169;50.560;9.714;2022-08-03T12:08:34;1.17;;;1.08;;
10248;SDS011;5169;50.560;9.714;2022-08-03T12:11:00;1.58;;;1.17;;
10248;SDS011;5169;50.560;9.714;2022-08-03T12:16:21;1.55;;;1.30;;
10248;SDS011;5169;50.560;9.714;2022-08-03T12:18:57;2.10;;;1.33;;
10248;SDS011;5169;50.560;9.714;2022-08-03T12:21:27;2.88;;;1.30;;
10248;SDS011;5169;50.560;9.714;2022-08-03T12:23:57;2.58;;;1.48;;
10248;SDS011;5169;50.560;9.714;2022-08-03T12:26:24;1.95;;;1.30;;
10248;SDS011;5169;50.560;9.714;2022-08-03T12:28:51;1.85;;;1.25;;
10248;SDS011;5169;50.560;9.714;2022-08-03T12:31:16;1.50;;;1.40;;
10248;SDS011;5169;50.560;9.714;2022-08-03T12:33:57;1.92;;;1.50;;
10248;SDS011;5169;50.560;9.714;2022-08-03T12:36:29;3.92;;;1.50;;
10248;SDS011;5169;50.560;9.714;2022-08-03T12:39:00;2.20;;;1.33;;
10248;SDS011;5169;50.560;9.714;2022-08-03T12:41:32;2.22;;;1.40;;
10248;SDS011;5169;50.560;9.714;2022-08-03T12:44:00;2.00;;;1.40;;
10248;SDS011;5169;50.560;9.714;2022-08-03T12:46:28;2.50;;;1.30;;
10248;SDS011;5169;50.560;9.714;2022-08-03T12:49:02;1.83;;;1.50;;
10248;SDS011;5169;50.560;9.714;2022-08-03T12:54:03;1.58;;;1.48;;
10248;SDS011;5169;50.560;9.714;2022-08-03T12:56:29;1.50;;;1.40;;
10248;SDS011;5169;50.560;9.714;2022-08-03T12:58:55;1.67;;;1.58;;
10248;SDS011;5169;50.560;9.714;2022-08-03T13:01:21;2.13;;;1.40;;
10248;SDS011;5169;50.560;9.714;2022-08-03T13:03:48;3.15;;;1.58;;
10248;SDS011;5169;50.560;9.714;2022-08-03T13:06:24;2.70;;;1.50;;
10248;SDS011;5169;50.560;9.714;2022-08-03T13:09:02;2.38;;;1.42;;
10248;SDS011;5169;50.560;9.714;2022-08-03T13:11:30;2.03;;;1.42;;
10248;SDS011;5169;50.560;9.714;2022-08-03T13:13:56;1.70;;;1.60;;
10248;SDS011;5169;50.560;9.714;2022-08-03T13:16:22;2.10;;;1.35;;
10248;SDS011;5169;50.560;9.714;2022-08-03T13:18:50;1.90;;;1.65;;
10248;SDS011;5169;50.560;9.714;2022-08-03T13:21:18;1.70;;;1.60;;
10248;SDS011;5169;50.560;9.714;2022-08-03T13:23:44;2.58;;;1.40;;
10248;SDS011;5169;50.560;9.714;2022-08-03T13:26:10;3.20;;;1.40;;
10248;SDS011;5169;50.560;9.714;2022-08-03T13:28:41;2.45;;;1.42;;
10248;SDS011;5169;50.560;9.714;2022-08-03T13:31:07;1.70;;;1.60;;
10248;SDS011;5169;50.560;9.714;2022-08-03T13:33:32;2.75;;;1.65;;
10248;SDS011;5169;50.560;9.714;2022-08-03T13:35:58;1.70;;;1.60;;
10248;SDS011;5169;50.560;9.714;2022-08-03T13:38:24;1.88;;;1.77;;
10248;SDS011;5169;50.560;9.714;2022-08-03T13:40:52;1.50;;;1.40;;
10248;SDS011;5169;50.560;9.714;2022-08-03T13:43:18;2.13;;;1.40;;
10248;SDS011;5169;50.560;9.714;2022-08-03T13:45:45;1.48;;;1.30;;
10248;SDS011;5169;50.560;9.714;2022-08-03T13:48:11;3.70;;;1.38;;
10248;SDS011;5169;50.560;9.714;2022-08-03T13:50:36;1.52;;;1.40;;
10248;SDS011;5169;50.560;9.714;2022-08-03T13:53:02;2.05;;;1.30;;
10248;SDS011;5169;50.560;9.714;2022-08-03T13:55:28;2.85;;;1.60;;
10248;SDS011;5169;50.560;9.714;2022-08-03T13:57:53;1.30;;;1.20;;
10248;SDS011;5169;50.560;9.714;2022-08-03T14:00:21;1.30;;;1.17;;
10248;SDS011;5169;50.560;9.714;2022-08-03T14:02:48;2.13;;;1.23;;
10248;SDS011;5169;50.560;9.714;2022-08-03T14:05:14;1.58;;;1.48;;
10248;SDS011;5169;50.560;9.714;2022-08-03T14:07:40;1.40;;;1.30;;
10248;SDS011;5169;50.560;9.714;2022-08-03T14:10:05;2.55;;;1.40;;
10248;SDS011;5169;50.560;9.714;2022-08-03T14:12:31;1.75;;;1.40;;
10248;SDS011;5169;50.560;9.714;2022-08-03T14:14:58;1.63;;;1.30;;
10248;SDS011;5169;50.560;9.714;2022-08-03T14:17:23;2.72;;;1.50;;
10248;SDS011;5169;50.560;9.714;2022-08-03T14:19:51;1.30;;;1.20;;
10248;SDS011;5169;50.560;9.714;2022-08-03T14:22:17;1.63;;;1.50;;
10248;SDS011;5169;50.560;9.714;2022-08-03T14:24:42;3.33;;;1.20;;
10248;SDS011;5169;50.560;9.714;2022-08-03T14:27:08;1.35;;;1.20;;
10248;SDS011;5169;50.560;9.714;2022-08-03T14:29:36;1.52;;;1.23;;
10248;SDS011;5169;50.560;9.714;2022-08-03T14:32:02;1.45;;;1.20;;
10248;SDS011;5169;50.560;9.714;2022-08-03T14:34:27;2.92;;;1.50;;
10248;SDS011;5169;50.560;9.714;2022-08-03T14:36:53;2.00;;;1.20;;
10248;SDS011;5169;50.560;9.714;2022-08-03T14:39:19;2.00;;;1.45;;
10248;SDS011;5169;50.560;9.714;2022-08-03T14:41:47;1.98;;;1.20;;
10248;SDS011;5169;50.560;9.714;2022-08-03T14:44:12;1.60;;;1.25;;
10248;SDS011;5169;50.560;9.714;2022-08-03T14:46:38;3.08;;;1.20;;
10248;SDS011;5169;50.560;9.714;2022-08-03T14:49:06;1.67;;;1.20;;
10248;SDS011;5169;50.560;9.714;2022-08-03T14:51:34;1.98;;;1.20;;
10248;SDS011;5169;50.560;9.714;2022-08-03T14:54:00;3.85;;;1.50;;
10248;SDS011;5169;50.560;9.714;2022-08-03T14:56:25;1.55;;;1.33;;
10248;SDS011;5169;50.560;9.714;2022-08-03T14:58:51;1.65;;;1.30;;
10248;SDS011;5169;50.560;9.714;2022-08-03T15:01:17;1.50;;;1.40;;
10248;SDS011;5169;50.560;9.714;2022-08-03T15:03:42;3.95;;;1.67;;
10248;SDS011;5169;50.560;9.714;2022-08-03T15:06:10;1.67;;;1.30;;
10248;SDS011;5169;50.560;9.714;2022-08-03T15:08:36;1.77;;;1.50;;
10248;SDS011;5169;50.560;9.714;2022-08-03T15:11:02;2.10;;;1.33;;
10248;SDS011;5169;50.560;9.714;2022-08-03T15:13:27;1.48;;;1.35;;
10248;SDS011;5169;50.560;9.714;2022-08-03T15:15:53;1.52;;;1.30;;
10248;SDS011;5169;50.560;9.714;2022-08-03T15:18:23;1.38;;;1.27;;
10248;SDS011;5169;50.560;9.714;2022-08-03T15:20:51;1.67;;;1.33;;
10248;SDS011;5169;50.560;9.714;2022-08-03T15:23:19;3.10;;;1.50;;
10248;SDS011;5169;50.560;9.714;2022-08-03T15:25:45;1.58;;;1.48;;
10248;SDS011;5169;50.560;9.714;2022-08-03T15:28:11;2.00;;;1.40;;
10248;SDS011;5169;50.560;9.714;2022-08-03T15:30:36;1.40;;;1.30;;
10248;SDS011;5169;50.560;9.714;2022-08-03T15:33:05;1.55;;;1.40;;
10248;SDS011;5169;50.560;9.714;2022-08-03T15:35:31;3.88;;;1.77;;
10248;SDS011;5169;50.560;9.714;2022-08-03T15:37:57;1.58;;;1.40;;
10248;SDS011;5169;50.560;9.714;2022-08-03T15:40:22;2.08;;;1.40;;
10248;SDS011;5169;50.560;9.714;2022-08-03T15:42:48;1.50;;;1.40;;